createdAt,value
2022-12-31T00:01:30.390Z,28.95
2022-12-31T00:03:57.541Z,26.27
2022-12-31T00:06:25.483Z,28.35
2022-12-31T00:08:53.707Z,27.58
2022-12-31T00:11:21.967Z,21.80
2022-12-31T00:13:48.976Z,23.50
2022-12-31T00:16:19.681Z,22.25
2022-12-31T00:18:47.927Z,20.98
2022-12-31T00:21:15.245Z,23.98
2022-12-31T00:23:42.435Z,25.58
2022-12-31T00:26:13.675Z,25.08
2022-12-31T00:28:41.474Z,24.75
2022-12-31T00:31:11.745Z,25.02
2022-12-31T00:33:39.369Z,24.52
2022-12-31T00:36:16.927Z,27.30
2022-12-31T00:38:45.489Z,26.23
2022-12-31T00:41:13.059Z,21.40
2022-12-31T00:43:39.648Z,22.48
2022-12-31T00:46:07.237Z,25.15
2022-12-31T00:48:35.232Z,25.70
2022-12-31T00:51:03.571Z,23.52
2022-12-31T00:53:30.906Z,26.67
2022-12-31T00:56:01.968Z,24.05
2022-12-31T00:58:29.019Z,23.45
2022-12-31T01:00:56.305Z,23.10
2022-12-31T01:03:23.748Z,37.63
2022-12-31T01:05:50.621Z,32.90
2022-12-31T01:08:18.446Z,23.55
2022-12-31T01:11:09.591Z,26.55
2022-12-31T01:13:36.232Z,22.42
2022-12-31T01:16:11.014Z,22.15
2022-12-31T01:18:38.016Z,25.02
2022-12-31T01:21:07.923Z,26.88
2022-12-31T01:23:34.535Z,23.40
2022-12-31T01:26:02.552Z,23.13
2022-12-31T01:28:29.644Z,22.90
2022-12-31T01:30:56.409Z,22.58
2022-12-31T01:33:23.688Z,20.55
2022-12-31T01:35:51.857Z,20.23
2022-12-31T01:38:18.468Z,21.13
2022-12-31T01:40:45.027Z,21.38
2022-12-31T01:43:21.356Z,18.00
2022-12-31T01:45:54.261Z,19.98
2022-12-31T01:48:26.787Z,17.80
2022-12-31T01:50:54.891Z,19.73
2022-12-31T01:53:22.087Z,18.65
2022-12-31T01:55:56.054Z,15.02
2022-12-31T01:58:39.327Z,15.63
2022-12-31T02:01:09.415Z,20.67
2022-12-31T02:03:37.153Z,18.45
2022-12-31T02:06:23.247Z,15.27
2022-12-31T02:08:51.430Z,16.02
2022-12-31T02:11:22.476Z,16.63
2022-12-31T02:13:55.010Z,20.23
2022-12-31T02:16:34.651Z,20.58
2022-12-31T02:19:29.021Z,20.15
2022-12-31T02:22:40.264Z,16.52
2022-12-31T02:25:44.371Z,24.90
2022-12-31T02:28:35.659Z,20.48
2022-12-31T02:31:17.439Z,22.35
2022-12-31T02:33:54.735Z,19.52
2022-12-31T02:36:26.526Z,20.33
2022-12-31T02:38:54.749Z,18.88
2022-12-31T02:41:40.074Z,19.77
2022-12-31T02:44:34.872Z,20.73
2022-12-31T02:47:13.549Z,21.20
2022-12-31T02:50:17.839Z,18.20
2022-12-31T02:53:12.000Z,21.40
2022-12-31T02:56:12.263Z,24.45
2022-12-31T02:59:07.696Z,23.88
2022-12-31T03:01:58.415Z,26.33
2022-12-31T03:04:32.434Z,26.75
2022-12-31T03:07:07.844Z,22.88
2022-12-31T03:09:35.742Z,25.83
2022-12-31T03:12:23.002Z,26.58
2022-12-31T03:14:49.929Z,23.05
2022-12-31T03:17:16.601Z,21.08
2022-12-31T03:20:02.209Z,23.73
2022-12-31T03:22:29.283Z,25.20
2022-12-31T03:25:20.388Z,25.00
2022-12-31T03:27:47.678Z,19.27
2022-12-31T03:30:16.347Z,22.20
2022-12-31T03:32:44.450Z,20.70
2022-12-31T03:35:13.737Z,20.05
2022-12-31T03:37:41.487Z,20.95
2022-12-31T03:40:10.653Z,20.20
2022-12-31T03:42:37.483Z,20.02
2022-12-31T03:45:05.637Z,22.85
2022-12-31T03:47:32.310Z,19.55
2022-12-31T03:49:58.955Z,16.73
2022-12-31T03:52:25.528Z,21.55
2022-12-31T03:54:52.114Z,20.50
2022-12-31T03:57:18.697Z,20.85
2022-12-31T03:59:45.292Z,19.65
2022-12-31T04:02:12.203Z,21.75
2022-12-31T04:04:38.960Z,19.38
2022-12-31T04:07:05.730Z,21.60
2022-12-31T04:09:32.343Z,20.63
2022-12-31T04:11:59.011Z,21.92
2022-12-31T04:14:25.625Z,16.67
2022-12-31T04:16:52.209Z,18.48
2022-12-31T04:19:18.917Z,17.67
2022-12-31T04:21:45.556Z,17.48
2022-12-31T04:24:12.575Z,15.73
2022-12-31T04:26:39.834Z,17.58
2022-12-31T04:29:06.827Z,17.02
2022-12-31T04:31:33.479Z,18.33
2022-12-31T04:34:00.132Z,18.55
2022-12-31T04:36:27.061Z,18.77
2022-12-31T04:38:53.634Z,17.92
2022-12-31T04:41:20.999Z,16.73
2022-12-31T04:43:52.775Z,16.15
2022-12-31T04:46:22.797Z,19.95
2022-12-31T04:48:49.454Z,15.80
2022-12-31T04:51:16.140Z,15.88
2022-12-31T04:53:43.540Z,15.82
2022-12-31T04:56:10.719Z,18.75
2022-12-31T04:58:38.716Z,16.50
2022-12-31T05:01:06.400Z,15.30
2022-12-31T05:03:33.887Z,17.65
2022-12-31T05:06:03.382Z,18.15
2022-12-31T05:08:30.350Z,18.15
2022-12-31T05:10:57.009Z,17.25
2022-12-31T05:13:29.400Z,15.75
2022-12-31T05:15:59.567Z,16.85
2022-12-31T05:18:26.156Z,19.48
2022-12-31T05:20:52.762Z,16.70
2022-12-31T05:23:19.473Z,17.08
2022-12-31T05:25:47.389Z,15.40
2022-12-31T05:28:15.149Z,14.52
2022-12-31T05:30:42.616Z,18.42
2022-12-31T05:33:09.455Z,19.35
2022-12-31T05:35:36.569Z,15.95
2022-12-31T05:38:03.205Z,20.95
2022-12-31T05:40:30.986Z,16.85
2022-12-31T05:42:57.691Z,17.73
2022-12-31T05:45:30.387Z,18.77
2022-12-31T05:47:57.680Z,17.02
2022-12-31T05:50:24.433Z,20.35
2022-12-31T05:52:55.688Z,13.68
2022-12-31T05:55:22.408Z,19.35
2022-12-31T05:57:48.980Z,18.25
2022-12-31T06:00:15.968Z,16.23
2022-12-31T06:02:42.674Z,14.75
2022-12-31T06:05:09.709Z,13.15
2022-12-31T06:07:36.384Z,14.63
2022-12-31T06:10:04.686Z,14.07
2022-12-31T06:12:31.435Z,12.20
2022-12-31T06:14:58.092Z,13.90
2022-12-31T06:17:24.949Z,14.90
2022-12-31T06:19:51.609Z,12.70
2022-12-31T06:22:18.252Z,13.07
2022-12-31T06:24:44.884Z,13.45
2022-12-31T06:27:11.498Z,14.20
2022-12-31T06:29:38.153Z,15.02
2022-12-31T06:32:05.151Z,15.82
2022-12-31T06:34:31.792Z,16.13
2022-12-31T06:36:59.193Z,15.57
2022-12-31T06:39:26.243Z,17.58
2022-12-31T06:41:52.883Z,20.70
2022-12-31T06:44:22.290Z,19.88
2022-12-31T06:46:50.129Z,14.77
2022-12-31T06:49:16.918Z,15.32
2022-12-31T06:51:46.018Z,15.18
2022-12-31T06:54:13.597Z,16.10
2022-12-31T06:56:41.304Z,16.30
2022-12-31T06:59:25.110Z,18.52
2022-12-31T07:02:13.516Z,16.00
2022-12-31T07:05:07.919Z,19.85
2022-12-31T07:07:53.451Z,17.67
2022-12-31T07:10:44.881Z,16.75
2022-12-31T07:13:28.297Z,17.77
2022-12-31T07:16:29.183Z,18.05
2022-12-31T07:19:21.891Z,17.02
2022-12-31T07:21:51.518Z,17.00
2022-12-31T07:24:18.362Z,18.25
2022-12-31T07:26:45.203Z,18.25
2022-12-31T07:29:43.100Z,20.30
2022-12-31T07:32:38.703Z,17.80
2022-12-31T07:35:22.044Z,19.02
2022-12-31T07:40:28.854Z,17.08
2022-12-31T07:43:21.648Z,21.25
2022-12-31T07:45:56.528Z,18.17
2022-12-31T07:48:26.339Z,20.02
2022-12-31T07:50:55.283Z,19.75
2022-12-31T07:53:24.630Z,17.67
2022-12-31T07:55:56.965Z,17.33
2022-12-31T07:58:57.751Z,18.67
2022-12-31T08:01:55.766Z,18.77
2022-12-31T08:04:43.885Z,15.75
2022-12-31T08:07:25.229Z,16.30
2022-12-31T08:10:18.192Z,16.90
2022-12-31T08:12:47.172Z,15.52
2022-12-31T08:15:15.965Z,18.42
2022-12-31T08:17:42.994Z,17.33
2022-12-31T08:20:17.424Z,20.73
2022-12-31T08:23:02.709Z,17.40
2022-12-31T08:26:06.011Z,17.85
2022-12-31T08:29:03.732Z,15.63
2022-12-31T08:31:54.902Z,17.42
2022-12-31T08:34:46.021Z,18.75
2022-12-31T08:37:36.670Z,19.63
2022-12-31T08:40:23.851Z,16.92
2022-12-31T08:43:11.977Z,16.17
2022-12-31T08:45:47.080Z,18.10
2022-12-31T08:48:23.827Z,17.33
2022-12-31T08:50:50.719Z,21.88
2022-12-31T08:53:17.516Z,29.35
2022-12-31T08:55:45.600Z,32.22
2022-12-31T08:58:46.100Z,32.83
2022-12-31T09:01:15.001Z,33.10
2022-12-31T09:04:26.209Z,32.88
2022-12-31T09:07:02.763Z,29.95
2022-12-31T09:09:52.772Z,30.85
2022-12-31T09:12:33.270Z,28.02
2022-12-31T09:15:04.164Z,25.75
2022-12-31T09:17:39.834Z,28.05
2022-12-31T09:20:14.311Z,27.58
2022-12-31T09:22:41.446Z,29.45
2022-12-31T09:25:13.727Z,25.58
2022-12-31T09:27:49.271Z,26.02
2022-12-31T09:30:17.641Z,28.58
2022-12-31T09:33:02.200Z,26.90
2022-12-31T09:35:58.359Z,25.90
2022-12-31T09:38:41.115Z,27.05
2022-12-31T09:41:14.483Z,22.70
2022-12-31T09:44:19.828Z,27.17
2022-12-31T09:47:04.051Z,24.30
2022-12-31T09:49:49.452Z,24.40
2022-12-31T09:52:21.975Z,26.00
2022-12-31T09:54:57.753Z,25.73
2022-12-31T09:57:38.100Z,25.20
2022-12-31T10:00:29.604Z,21.85
2022-12-31T10:03:18.867Z,23.63
2022-12-31T10:06:09.845Z,21.38
2022-12-31T10:09:05.951Z,22.33
2022-12-31T10:11:41.334Z,21.15
2022-12-31T10:14:48.600Z,21.05
2022-12-31T10:17:30.518Z,21.05
2022-12-31T10:19:57.107Z,22.15
2022-12-31T10:22:57.474Z,19.20
2022-12-31T10:25:48.817Z,22.15
2022-12-31T10:28:29.824Z,21.13
2022-12-31T10:31:07.165Z,19.10
2022-12-31T10:33:43.408Z,23.52
2022-12-31T10:36:19.892Z,23.73
2022-12-31T10:39:10.466Z,20.65
2022-12-31T10:44:49.495Z,22.08
2022-12-31T10:47:27.862Z,21.27
2022-12-31T10:50:31.596Z,24.77
2022-12-31T10:55:58.816Z,23.23
2022-12-31T10:58:53.254Z,22.85
2022-12-31T11:01:40.520Z,20.13
2022-12-31T11:04:25.901Z,20.38
2022-12-31T11:07:22.163Z,20.00
2022-12-31T11:10:09.619Z,16.50
2022-12-31T11:13:02.979Z,15.82
2022-12-31T11:15:50.034Z,15.80
2022-12-31T11:18:55.218Z,16.63
2022-12-31T11:21:35.214Z,14.75
2022-12-31T11:24:13.509Z,15.32
2022-12-31T11:27:01.143Z,12.63
2022-12-31T11:29:46.239Z,16.08
2022-12-31T11:32:21.940Z,13.27
2022-12-31T11:34:48.474Z,11.48
2022-12-31T11:37:39.800Z,11.43
2022-12-31T11:40:39.114Z,9.43
2022-12-31T11:43:11.946Z,11.25
2022-12-31T11:48:30.556Z,9.95
2022-12-31T11:51:19.524Z,9.80
2022-12-31T11:54:01.303Z,10.20
2022-12-31T11:56:40.192Z,10.13
2022-12-31T11:59:18.686Z,9.77
2022-12-31T12:02:00.639Z,16.05
2022-12-31T12:04:27.947Z,13.10
2022-12-31T12:06:54.532Z,20.08
2022-12-31T12:09:28.357Z,13.63
2022-12-31T12:12:01.468Z,12.65
2022-12-31T12:14:42.672Z,15.27
2022-12-31T12:17:35.624Z,13.27
2022-12-31T12:20:13.363Z,12.60
2022-12-31T12:22:49.742Z,12.30
2022-12-31T12:25:22.193Z,11.80
2022-12-31T12:27:49.082Z,8.80
2022-12-31T12:30:20.287Z,13.10
2022-12-31T12:33:00.140Z,11.98
2022-12-31T12:35:33.206Z,8.85
2022-12-31T12:38:08.403Z,12.20
2022-12-31T12:40:35.751Z,12.95
2022-12-31T12:43:03.419Z,13.70
2022-12-31T12:45:45.206Z,9.13
2022-12-31T12:48:32.717Z,11.07
2022-12-31T12:51:00.405Z,8.80
2022-12-31T12:53:55.315Z,9.00
2022-12-31T12:56:45.571Z,14.35
2022-12-31T12:59:35.559Z,12.18
2022-12-31T13:02:28.309Z,12.13
2022-12-31T13:05:16.720Z,15.15
2022-12-31T13:07:52.440Z,9.35
2022-12-31T13:10:33.071Z,13.57
2022-12-31T13:13:43.657Z,14.70
2022-12-31T13:16:28.385Z,13.35
2022-12-31T13:19:10.115Z,10.63
2022-12-31T13:21:50.394Z,13.90
2022-12-31T13:24:34.551Z,12.05
2022-12-31T13:27:12.856Z,12.85
2022-12-31T13:29:42.062Z,8.88
2022-12-31T13:32:15.574Z,12.82
2022-12-31T13:34:46.218Z,8.75
2022-12-31T13:37:26.787Z,8.85
2022-12-31T13:40:03.333Z,8.50
2022-12-31T13:42:40.451Z,8.73
2022-12-31T13:45:20.811Z,9.18
2022-12-31T13:47:54.177Z,9.45
2022-12-31T13:50:37.475Z,11.85
2022-12-31T13:53:14.035Z,12.13
2022-12-31T13:55:45.021Z,11.90
2022-12-31T13:58:38.521Z,11.20
2022-12-31T14:01:32.111Z,12.90
2022-12-31T14:04:07.973Z,15.40
2022-12-31T14:06:49.645Z,16.25
2022-12-31T14:09:25.027Z,14.05
2022-12-31T14:11:51.619Z,18.15
2022-12-31T14:14:45.983Z,15.57
2022-12-31T14:17:31.033Z,15.80
2022-12-31T14:20:18.379Z,13.20
2022-12-31T14:23:24.997Z,14.75
2022-12-31T14:25:58.071Z,12.95
2022-12-31T14:28:35.656Z,15.13
2022-12-31T14:31:17.094Z,15.60
2022-12-31T14:33:46.769Z,13.43
2022-12-31T14:36:40.688Z,14.98
2022-12-31T14:39:13.316Z,14.98
2022-12-31T14:41:53.197Z,17.33
2022-12-31T14:44:42.025Z,12.15
2022-12-31T14:47:23.804Z,14.00
2022-12-31T14:50:03.824Z,12.73
2022-12-31T14:52:36.189Z,14.35
2022-12-31T14:55:22.906Z,13.27
2022-12-31T15:00:38.989Z,14.88
2022-12-31T15:03:06.999Z,15.20
2022-12-31T15:05:36.592Z,16.80
2022-12-31T15:08:19.413Z,17.75
2022-12-31T15:11:07.616Z,18.42
2022-12-31T15:13:34.155Z,18.08
2022-12-31T15:16:19.474Z,16.17
2022-12-31T15:18:57.952Z,21.77
2022-12-31T15:21:33.415Z,19.13
2022-12-31T15:24:00.717Z,21.55
2022-12-31T15:26:33.636Z,19.85
2022-12-31T15:29:02.944Z,14.63
2022-12-31T15:31:32.009Z,13.93
2022-12-31T15:34:06.313Z,17.92
2022-12-31T15:36:36.008Z,22.00
2022-12-31T15:39:11.851Z,23.38
2022-12-31T15:41:46.013Z,24.20
2022-12-31T15:44:51.886Z,24.05
2022-12-31T15:47:36.881Z,28.65
2022-12-31T15:50:06.544Z,26.95
2022-12-31T15:52:43.776Z,25.85
2022-12-31T15:55:26.225Z,22.85
2022-12-31T15:57:58.267Z,26.42
2022-12-31T16:00:24.919Z,26.73
2022-12-31T16:02:55.273Z,27.85
2022-12-31T16:05:27.326Z,28.15
2022-12-31T16:07:58.521Z,31.52
2022-12-31T16:10:29.361Z,36.15
2022-12-31T16:12:58.109Z,32.45
2022-12-31T16:15:31.434Z,37.22
2022-12-31T16:18:04.564Z,41.28
2022-12-31T16:23:01.716Z,34.33
2022-12-31T16:25:32.024Z,34.03
2022-12-31T16:28:01.169Z,29.38
2022-12-31T16:30:30.567Z,28.15
2022-12-31T16:33:03.401Z,29.17
2022-12-31T16:35:32.788Z,29.27
2022-12-31T16:38:18.966Z,30.60
2022-12-31T16:41:28.039Z,43.20
2022-12-31T16:43:55.069Z,42.72
2022-12-31T16:46:21.753Z,40.88
2022-12-31T16:49:00.578Z,33.10
2022-12-31T16:51:32.412Z,28.80
2022-12-31T16:54:01.817Z,22.15
2022-12-31T16:56:39.476Z,27.38
2022-12-31T16:59:16.426Z,22.20
2022-12-31T17:01:43.931Z,24.52
2022-12-31T17:04:14.083Z,20.55
2022-12-31T17:06:42.677Z,21.00
2022-12-31T17:09:13.870Z,19.67
2022-12-31T17:11:55.188Z,28.55
2022-12-31T17:14:25.163Z,32.60
2022-12-31T17:17:03.701Z,32.85
2022-12-31T17:19:45.887Z,31.00
2022-12-31T17:22:35.908Z,32.40
2022-12-31T17:25:09.003Z,31.05
2022-12-31T17:27:36.763Z,31.75
2022-12-31T17:30:27.621Z,30.50
2022-12-31T17:33:02.158Z,26.02
2022-12-31T17:35:37.318Z,22.88
2022-12-31T17:38:32.161Z,21.02
2022-12-31T17:41:05.360Z,21.38
2022-12-31T17:43:35.441Z,20.13
2022-12-31T17:46:03.705Z,19.63
2022-12-31T17:48:31.322Z,22.40
2022-12-31T17:51:00.728Z,21.42
2022-12-31T17:53:27.629Z,23.45
2022-12-31T17:56:04.761Z,24.35
2022-12-31T17:58:50.064Z,31.80
2022-12-31T18:01:20.231Z,27.30
2022-12-31T18:03:50.223Z,27.25
2022-12-31T18:06:19.314Z,26.42
2022-12-31T18:08:46.065Z,33.05
2022-12-31T18:11:18.408Z,31.20
2022-12-31T18:13:45.388Z,32.40
2022-12-31T18:16:12.082Z,31.20
2022-12-31T18:18:40.136Z,34.25
2022-12-31T18:21:13.232Z,34.03
2022-12-31T18:26:17.659Z,35.95
2022-12-31T18:28:44.737Z,37.45
2022-12-31T18:31:20.265Z,43.35
2022-12-31T18:33:47.353Z,32.58
2022-12-31T18:36:15.716Z,33.13
2022-12-31T18:38:42.798Z,34.75
2022-12-31T18:41:17.890Z,32.38
2022-12-31T18:43:44.940Z,28.95
2022-12-31T18:46:16.769Z,33.08
2022-12-31T18:48:44.256Z,28.95
2022-12-31T18:51:14.686Z,36.45
2022-12-31T18:53:41.321Z,39.22
2022-12-31T18:56:20.335Z,43.63
2022-12-31T18:58:47.766Z,44.85
2022-12-31T19:01:41.117Z,49.45
2022-12-31T19:04:13.871Z,47.33
2022-12-31T19:06:40.735Z,47.83
2022-12-31T19:09:23.680Z,50.67
2022-12-31T19:11:53.910Z,62.22
2022-12-31T19:14:24.197Z,64.30
2022-12-31T19:16:53.185Z,67.55
2022-12-31T19:19:20.431Z,68.90
2022-12-31T19:21:47.418Z,68.10
2022-12-31T19:24:26.640Z,69.03
2022-12-31T19:26:54.474Z,69.53
2022-12-31T19:29:26.663Z,69.72
2022-12-31T19:31:53.528Z,63.10
2022-12-31T19:34:20.166Z,67.03
2022-12-31T19:36:47.064Z,93.68
2022-12-31T19:39:17.023Z,70.20
2022-12-31T19:41:44.233Z,76.63
2022-12-31T19:44:16.030Z,91.07
2022-12-31T19:46:42.672Z,93.90
2022-12-31T19:49:13.895Z,89.43
2022-12-31T19:51:41.223Z,92.75
2022-12-31T19:54:08.420Z,94.10
2022-12-31T19:56:35.240Z,82.95
2022-12-31T19:59:09.407Z,78.47
2022-12-31T20:01:36.472Z,72.65
2022-12-31T20:04:03.326Z,79.32
2022-12-31T20:06:30.061Z,74.22
2022-12-31T20:08:56.608Z,77.65
2022-12-31T20:11:24.566Z,81.38
2022-12-31T20:13:53.576Z,89.00
2022-12-31T20:16:23.442Z,84.10
2022-12-31T20:18:50.665Z,91.45
2022-12-31T20:21:20.275Z,82.85
2022-12-31T20:23:48.942Z,91.03
2022-12-31T20:26:16.151Z,92.50
2022-12-31T20:28:42.831Z,86.90
2022-12-31T20:31:13.353Z,86.57
2022-12-31T20:33:40.604Z,77.40
2022-12-31T20:36:10.671Z,84.55
2022-12-31T20:38:37.517Z,118.65
2022-12-31T20:41:09.693Z,113.05
2022-12-31T20:43:37.696Z,118.72
2022-12-31T20:46:14.799Z,113.75
2022-12-31T20:48:42.625Z,117.47
2022-12-31T20:51:09.193Z,119.53
2022-12-31T20:53:35.991Z,110.15
2022-12-31T20:56:07.440Z,94.05
2022-12-31T20:58:34.605Z,91.15
2022-12-31T21:01:01.426Z,89.75
2022-12-31T21:04:03.635Z,92.15
2022-12-31T21:06:16.031Z,125.93
2022-12-31T21:08:43.498Z,123.68
2022-12-31T21:11:28.828Z,120.20
2022-12-31T21:13:56.982Z,121.47
2022-12-31T21:16:24.225Z,133.27
2022-12-31T21:18:50.855Z,132.63
2022-12-31T21:21:17.517Z,141.57
2022-12-31T21:23:44.241Z,138.40
2022-12-31T21:26:10.922Z,134.40
2022-12-31T21:28:37.510Z,161.00
2022-12-31T21:31:06.616Z,151.73
2022-12-31T21:33:34.091Z,132.45
2022-12-31T21:36:04.519Z,123.93
2022-12-31T21:38:31.742Z,136.40
2022-12-31T21:41:03.116Z,126.30
2022-12-31T21:43:29.756Z,143.60
2022-12-31T21:46:07.281Z,167.18
2022-12-31T21:48:34.358Z,151.30
2022-12-31T21:51:09.263Z,145.32
2022-12-31T21:53:37.392Z,135.30
2022-12-31T21:56:16.116Z,149.30
2022-12-31T21:58:44.609Z,135.05
2022-12-31T22:01:38.909Z,140.00
2022-12-31T22:04:07.894Z,126.43
2022-12-31T22:06:39.620Z,128.57
2022-12-31T22:09:06.196Z,126.50
2022-12-31T22:11:32.779Z,104.40
2022-12-31T22:13:59.403Z,97.25
2022-12-31T22:16:26.044Z,94.15
2022-12-31T22:18:55.674Z,103.95
2022-12-31T22:21:24.529Z,98.22
2022-12-31T22:23:53.723Z,94.70
2022-12-31T22:26:23.826Z,82.95
2022-12-31T22:28:51.154Z,92.38
2022-12-31T22:31:30.212Z,90.90
2022-12-31T22:33:58.052Z,111.13
2022-12-31T22:36:24.928Z,107.20
2022-12-31T22:38:57.208Z,109.90
2022-12-31T22:41:25.180Z,110.18
2022-12-31T22:44:02.229Z,115.88
2022-12-31T22:46:30.081Z,104.95
2022-12-31T22:48:58.733Z,114.32
2022-12-31T22:51:54.525Z,115.85
2022-12-31T22:54:13.539Z,103.10
2022-12-31T22:56:40.180Z,108.07
2022-12-31T22:59:06.770Z,95.05
2022-12-31T23:01:34.542Z,108.68
2022-12-31T23:04:01.264Z,111.15
2022-12-31T23:06:28.993Z,137.20
2022-12-31T23:09:15.703Z,126.97
2022-12-31T23:11:45.624Z,129.85
2022-12-31T23:14:35.755Z,118.72
2022-12-31T23:17:29.414Z,110.90
2022-12-31T23:20:17.541Z,97.75
2022-12-31T23:23:02.456Z,114.85
2022-12-31T23:25:51.028Z,316.40
2022-12-31T23:28:21.247Z,281.40
2022-12-31T23:30:48.280Z,328.88
2022-12-31T23:33:20.595Z,266.58
2022-12-31T23:35:47.459Z,241.15
2022-12-31T23:38:16.811Z,248.98
2022-12-31T23:40:43.893Z,226.75
2022-12-31T23:43:20.009Z,236.00
2022-12-31T23:45:46.618Z,269.23
2022-12-31T23:48:13.233Z,287.38
2022-12-31T23:50:40.720Z,269.65
2022-12-31T23:53:07.306Z,282.98
2022-12-31T23:55:33.919Z,291.48
2022-12-31T23:58:00.499Z,306.73
